Martin, MI (49070)

4:58 AM EDT on August 21, 2014 (GMT -0400)
Open country area | Change Station
CLOSE
Current Station
Personal Weather Station
Location: Plainwell, MI
Elevation: 853 ft
Nearby Weather Stations

Elev 853 ft 42.46 °N, 85.57 °W | Updated 55 seconds ago

Scattered Clouds
Scattered Clouds
63.0 °F
Feels Like 63.0 °F
N
0.0
Wind Variable Wind from SSW
Gusts 0.0 mph

Today
High -- | Low -- °F
--% Chance of Precip.
Yesterday
High -- | Low -- °F
Precip. -- in
6:55 AM 8:34 PM
Waning Crescent, 15% visible
Pressure 29.95 in
Visibility 5.0 miles
Clouds Scattered Clouds 7500 ft
Dew Point 62 °F
Humidity 98%
Rainfall 0.00 in
Snow Depth Not available.
UV 0 out of 12
Pollen 9.90 out of 12
Ozone Good
PM2.5 Good
Flu Activity Not available.
METAR KAZO 210853Z AUTO 20004KT 5SM BR SCT075 19/17 A2997 RMK AO2 SLP142 T01890172 56004

More Conditions Fewer Conditions

Pressure 29.95 in
Visibility 5.0 miles
Clouds Scattered Clouds 7500 ft
Dew Point 62 °F
Humidity 98%
Rainfall 0.00 in
Snow Depth Not available.
UV 0 out of 12
Pollen 9.90 out of 12
Ozone Good
PM2.5 Good
Flu Activity Not available.
METAR KAZO 210853Z AUTO 20004KT 5SM BR SCT075 19/17 A2997 RMK AO2 SLP142 T01890172 56004

More Conditions Fewer Conditions

10-Day Weather Forecast

Almanac

Astronomy

Aug. 21, 2014 Rise Set
Actual Time 6:55 AM EDT 8:34 PM EDT
Civil Twilight 6:25 AM EDT 9:04 PM EDT
Nautical Twilight 5:49 AM EDT 9:40 PM EDT
Astronomical Twilight 5:10 AM EDT 10:19 PM EDT
Moon 3:23 AM EDT 6:04 PM EDT
Length of Visible Light 14h 38m
Length of Day
13h 38m
Tomorrow will be 2m 39s shorter.
Waning Crescent, 15% of the Moon is Illuminated
Today
Waning Crescent
Aug 25
New
Sep 2
First Quarter
Sep 8
Full
Sep 15
Last Quarter

Today's Extremes

State Highs State Lows

Community

WunderPhotos

Upload Photos

1,745,866 photos uploaded!

Nearby

Air Quality

  Air Quality AQ Index Pollutant
Yesterday Good
OZONE
Yesterday Good
PM2.5
Current Good
PM2.5
Current Good
OZONE
Thursday Moderate
PM2.5
Thursday Good
OZONE

Snow Depth

Station Depth Elevation
No new snow has been reported.

Earthquake Activity

City Distance Mag. Time & Date
No recent earthquake activity has been reported nearby.
Minimum magnitude displayed is 2.5.

Coastal Water Temperatures

Place Temperature
No Stations Reporting

Nearby Weather Stations